sensor_id;sensor_type;location;lat;lon;timestamp;P1;durP1;ratioP1;P2;durP2;ratioP2
2760;SDS011;15420;48.636;9.798;2022-12-29T00:01:15;3.13;;;1.73;;
2760;SDS011;15420;48.636;9.798;2022-12-29T00:03:41;1.63;;;1.53;;
2760;SDS011;15420;48.636;9.798;2022-12-29T00:06:16;3.07;;;1.80;;
2760;SDS011;15420;48.636;9.798;2022-12-29T00:08:44;3.07;;;1.90;;
2760;SDS011;15420;48.636;9.798;2022-12-29T00:11:17;3.17;;;2.30;;
2760;SDS011;15420;48.636;9.798;2022-12-29T00:13:45;2.40;;;2.20;;
2760;SDS011;15420;48.636;9.798;2022-12-29T00:16:37;5.80;;;2.70;;
2760;SDS011;15420;48.636;9.798;2022-12-29T00:19:07;7.83;;;2.07;;
2760;SDS011;15420;48.636;9.798;2022-12-29T00:21:53;3.37;;;2.10;;
2760;SDS011;15420;48.636;9.798;2022-12-29T00:24:41;2.60;;;1.90;;
2760;SDS011;15420;48.636;9.798;2022-12-29T00:27:37;1.70;;;1.60;;
2760;SDS011;15420;48.636;9.798;2022-12-29T00:30:25;4.20;;;2.23;;
2760;SDS011;15420;48.636;9.798;2022-12-29T00:33:14;3.43;;;2.30;;
2760;SDS011;15420;48.636;9.798;2022-12-29T00:38:38;7.80;;;2.37;;
2760;SDS011;15420;48.636;9.798;2022-12-29T00:41:26;3.30;;;2.20;;
2760;SDS011;15420;48.636;9.798;2022-12-29T00:44:12;3.27;;;2.10;;
2760;SDS011;15420;48.636;9.798;2022-12-29T00:46:40;4.73;;;2.27;;
2760;SDS011;15420;48.636;9.798;2022-12-29T00:49:10;2.83;;;2.10;;
2760;SDS011;15420;48.636;9.798;2022-12-29T00:51:57;2.13;;;1.83;;
2760;SDS011;15420;48.636;9.798;2022-12-29T00:54:35;2.50;;;2.00;;
2760;SDS011;15420;48.636;9.798;2022-12-29T00:57:03;1.50;;;1.40;;
2760;SDS011;15420;48.636;9.798;2022-12-29T00:59:31;1.93;;;1.53;;
2760;SDS011;15420;48.636;9.798;2022-12-29T01:02:01;2.10;;;2.00;;
2760;SDS011;15420;48.636;9.798;2022-12-29T01:04:27;1.70;;;1.60;;
2760;SDS011;15420;48.636;9.798;2022-12-29T01:06:53;1.83;;;1.63;;
2760;SDS011;15420;48.636;9.798;2022-12-29T01:09:19;1.87;;;1.57;;
2760;SDS011;15420;48.636;9.798;2022-12-29T01:12:05;1.80;;;1.70;;
2760;SDS011;15420;48.636;9.798;2022-12-29T01:14:37;1.63;;;1.53;;
2760;SDS011;15420;48.636;9.798;2022-12-29T01:17:03;1.77;;;1.30;;
2760;SDS011;15420;48.636;9.798;2022-12-29T01:19:30;1.53;;;1.43;;
2760;SDS011;15420;48.636;9.798;2022-12-29T01:21:57;1.47;;;1.37;;
2760;SDS011;15420;48.636;9.798;2022-12-29T01:24:25;2.77;;;1.10;;
2760;SDS011;15420;48.636;9.798;2022-12-29T01:26:54;1.60;;;1.37;;
2760;SDS011;15420;48.636;9.798;2022-12-29T01:29:20;1.60;;;1.50;;
2760;SDS011;15420;48.636;9.798;2022-12-29T01:31:47;2.87;;;1.70;;
2760;SDS011;15420;48.636;9.798;2022-12-29T01:34:15;1.97;;;1.53;;
2760;SDS011;15420;48.636;9.798;2022-12-29T01:36:42;1.73;;;1.63;;
2760;SDS011;15420;48.636;9.798;2022-12-29T01:39:10;1.63;;;1.53;;
2760;SDS011;15420;48.636;9.798;2022-12-29T01:41:36;1.60;;;1.50;;
2760;SDS011;15420;48.636;9.798;2022-12-29T01:47:20;1.77;;;1.67;;
2760;SDS011;15420;48.636;9.798;2022-12-29T01:50:08;3.07;;;1.60;;
2760;SDS011;15420;48.636;9.798;2022-12-29T01:52:50;1.60;;;1.37;;
2760;SDS011;15420;48.636;9.798;2022-12-29T01:55:52;1.63;;;1.53;;
2760;SDS011;15420;48.636;9.798;2022-12-29T01:58:22;2.07;;;1.70;;
2760;SDS011;15420;48.636;9.798;2022-12-29T02:00:52;3.50;;;1.50;;
2760;SDS011;15420;48.636;9.798;2022-12-29T02:03:21;1.53;;;1.43;;
2760;SDS011;15420;48.636;9.798;2022-12-29T02:06:04;1.50;;;1.40;;
2760;SDS011;15420;48.636;9.798;2022-12-29T02:08:33;2.90;;;1.57;;
2760;SDS011;15420;48.636;9.798;2022-12-29T02:11:00;1.83;;;1.47;;
2760;SDS011;15420;48.636;9.798;2022-12-29T02:13:29;2.33;;;1.60;;
2760;SDS011;15420;48.636;9.798;2022-12-29T02:32:41;1.60;;;1.50;;
2760;SDS011;15420;48.636;9.798;2022-12-29T02:35:19;1.43;;;1.33;;
2760;SDS011;15420;48.636;9.798;2022-12-29T02:46:37;1.20;;;1.10;;
2760;SDS011;15420;48.636;9.798;2022-12-29T02:51:54;3.70;;;2.03;;
2760;SDS011;15420;48.636;9.798;2022-12-29T02:54:28;1.60;;;1.50;;
2760;SDS011;15420;48.636;9.798;2022-12-29T02:59:49;1.40;;;1.30;;
2760;SDS011;15420;48.636;9.798;2022-12-29T03:13:23;3.43;;;1.70;;
2760;SDS011;15420;48.636;9.798;2022-12-29T03:16:57;3.07;;;2.83;;
2760;SDS011;15420;48.636;9.798;2022-12-29T03:21:40;2.17;;;1.60;;
2760;SDS011;15420;48.636;9.798;2022-12-29T03:24:36;1.33;;;1.23;;
2760;SDS011;15420;48.636;9.798;2022-12-29T03:27:09;5.53;;;1.40;;
2760;SDS011;15420;48.636;9.798;2022-12-29T03:29:49;1.67;;;1.57;;
2760;SDS011;15420;48.636;9.798;2022-12-29T03:32:31;2.23;;;1.40;;
2760;SDS011;15420;48.636;9.798;2022-12-29T03:35:04;1.47;;;1.33;;
2760;SDS011;15420;48.636;9.798;2022-12-29T03:37:36;2.13;;;1.70;;
2760;SDS011;15420;48.636;9.798;2022-12-29T03:40:09;2.17;;;1.60;;
2760;SDS011;15420;48.636;9.798;2022-12-29T03:42:43;2.30;;;1.40;;
2760;SDS011;15420;48.636;9.798;2022-12-29T03:45:09;1.57;;;1.33;;
2760;SDS011;15420;48.636;9.798;2022-12-29T03:47:35;1.60;;;1.50;;
2760;SDS011;15420;48.636;9.798;2022-12-29T03:50:01;1.53;;;1.10;;
2760;SDS011;15420;48.636;9.798;2022-12-29T03:52:28;2.30;;;1.40;;
2760;SDS011;15420;48.636;9.798;2022-12-29T03:54:54;1.80;;;1.70;;
2760;SDS011;15420;48.636;9.798;2022-12-29T03:57:20;1.67;;;1.53;;
2760;SDS011;15420;48.636;9.798;2022-12-29T03:59:48;1.50;;;1.40;;
2760;SDS011;15420;48.636;9.798;2022-12-29T04:02:14;1.70;;;1.60;;
2760;SDS011;15420;48.636;9.798;2022-12-29T04:04:45;1.67;;;1.37;;
2760;SDS011;15420;48.636;9.798;2022-12-29T04:07:11;2.30;;;1.43;;
2760;SDS011;15420;48.636;9.798;2022-12-29T04:09:37;2.07;;;1.50;;
2760;SDS011;15420;48.636;9.798;2022-12-29T04:12:03;3.13;;;1.73;;
2760;SDS011;15420;48.636;9.798;2022-12-29T04:14:29;3.63;;;2.33;;
2760;SDS011;15420;48.636;9.798;2022-12-29T04:16:56;1.57;;;1.47;;
2760;SDS011;15420;48.636;9.798;2022-12-29T04:19:24;1.20;;;1.10;;
2760;SDS011;15420;48.636;9.798;2022-12-29T04:21:50;2.40;;;1.70;;
2760;SDS011;15420;48.636;9.798;2022-12-29T04:24:18;2.93;;;1.47;;
2760;SDS011;15420;48.636;9.798;2022-12-29T04:26:46;1.60;;;1.50;;
2760;SDS011;15420;48.636;9.798;2022-12-29T04:29:15;1.70;;;1.53;;
2760;SDS011;15420;48.636;9.798;2022-12-29T04:31:41;1.80;;;1.27;;
2760;SDS011;15420;48.636;9.798;2022-12-29T04:34:09;1.83;;;1.73;;
2760;SDS011;15420;48.636;9.798;2022-12-29T04:36:36;2.73;;;1.33;;
2760;SDS011;15420;48.636;9.798;2022-12-29T04:39:05;1.77;;;1.47;;
2760;SDS011;15420;48.636;9.798;2022-12-29T04:41:31;1.93;;;1.47;;
2760;SDS011;15420;48.636;9.798;2022-12-29T04:44:00;1.43;;;1.33;;
2760;SDS011;15420;48.636;9.798;2022-12-29T04:46:29;1.77;;;1.43;;
2760;SDS011;15420;48.636;9.798;2022-12-29T04:48:55;1.87;;;1.67;;
2760;SDS011;15420;48.636;9.798;2022-12-29T04:51:21;2.30;;;2.10;;
2760;SDS011;15420;48.636;9.798;2022-12-29T04:53:47;1.80;;;1.70;;
2760;SDS011;15420;48.636;9.798;2022-12-29T04:56:18;1.90;;;1.80;;
2760;SDS011;15420;48.636;9.798;2022-12-29T04:58:44;1.67;;;1.43;;
2760;SDS011;15420;48.636;9.798;2022-12-29T05:01:10;1.60;;;1.50;;
2760;SDS011;15420;48.636;9.798;2022-12-29T05:03:41;1.40;;;1.30;;
2760;SDS011;15420;48.636;9.798;2022-12-29T05:06:09;1.43;;;1.30;;
2760;SDS011;15420;48.636;9.798;2022-12-29T05:08:35;1.27;;;1.17;;
2760;SDS011;15420;48.636;9.798;2022-12-29T05:11:04;2.20;;;1.50;;
2760;SDS011;15420;48.636;9.798;2022-12-29T05:13:30;1.63;;;1.50;;
2760;SDS011;15420;48.636;9.798;2022-12-29T05:15:56;2.47;;;1.70;;
2760;SDS011;15420;48.636;9.798;2022-12-29T05:18:22;2.27;;;1.70;;
2760;SDS011;15420;48.636;9.798;2022-12-29T05:20:48;1.73;;;1.50;;
2760;SDS011;15420;48.636;9.798;2022-12-29T05:23:17;2.87;;;2.27;;
2760;SDS011;15420;48.636;9.798;2022-12-29T05:25:49;2.50;;;1.87;;
2760;SDS011;15420;48.636;9.798;2022-12-29T05:28:15;2.10;;;1.90;;
2760;SDS011;15420;48.636;9.798;2022-12-29T05:30:41;2.30;;;2.20;;
2760;SDS011;15420;48.636;9.798;2022-12-29T05:33:10;4.50;;;2.30;;
2760;SDS011;15420;48.636;9.798;2022-12-29T05:35:36;3.20;;;2.37;;
2760;SDS011;15420;48.636;9.798;2022-12-29T05:38:02;3.73;;;2.63;;
2760;SDS011;15420;48.636;9.798;2022-12-29T05:40:28;4.50;;;2.73;;
2760;SDS011;15420;48.636;9.798;2022-12-29T05:42:57;3.50;;;2.47;;
2760;SDS011;15420;48.636;9.798;2022-12-29T05:45:25;4.40;;;2.17;;
2760;SDS011;15420;48.636;9.798;2022-12-29T05:47:51;2.63;;;2.43;;
2760;SDS011;15420;48.636;9.798;2022-12-29T05:50:21;2.60;;;2.00;;
2760;SDS011;15420;48.636;9.798;2022-12-29T05:52:47;2.20;;;1.80;;
2760;SDS011;15420;48.636;9.798;2022-12-29T05:55:17;1.53;;;1.30;;
2760;SDS011;15420;48.636;9.798;2022-12-29T05:57:43;2.57;;;1.77;;
2760;SDS011;15420;48.636;9.798;2022-12-29T06:00:15;2.33;;;1.80;;
2760;SDS011;15420;48.636;9.798;2022-12-29T06:02:41;2.20;;;1.70;;
2760;SDS011;15420;48.636;9.798;2022-12-29T06:05:09;1.83;;;1.40;;
2760;SDS011;15420;48.636;9.798;2022-12-29T06:07:36;1.70;;;1.60;;
2760;SDS011;15420;48.636;9.798;2022-12-29T06:10:05;3.07;;;2.07;;
2760;SDS011;15420;48.636;9.798;2022-12-29T06:12:31;2.10;;;1.47;;
2760;SDS011;15420;48.636;9.798;2022-12-29T06:15:00;2.17;;;1.97;;
2760;SDS011;15420;48.636;9.798;2022-12-29T06:17:28;3.20;;;2.20;;
2760;SDS011;15420;48.636;9.798;2022-12-29T06:19:54;3.40;;;2.10;;
2760;SDS011;15420;48.636;9.798;2022-12-29T06:22:22;5.00;;;3.50;;
2760;SDS011;15420;48.636;9.798;2022-12-29T06:24:53;3.73;;;2.60;;
2760;SDS011;15420;48.636;9.798;2022-12-29T06:27:19;5.30;;;2.07;;
2760;SDS011;15420;48.636;9.798;2022-12-29T06:29:45;2.30;;;2.10;;
2760;SDS011;15420;48.636;9.798;2022-12-29T06:32:11;2.23;;;2.03;;
2760;SDS011;15420;48.636;9.798;2022-12-29T06:34:42;3.50;;;2.43;;
2760;SDS011;15420;48.636;9.798;2022-12-29T06:37:10;2.17;;;1.97;;
2760;SDS011;15420;48.636;9.798;2022-12-29T06:39:37;5.40;;;2.30;;
2760;SDS011;15420;48.636;9.798;2022-12-29T06:42:03;3.07;;;1.77;;
2760;SDS011;15420;48.636;9.798;2022-12-29T06:44:31;1.53;;;1.43;;
2760;SDS011;15420;48.636;9.798;2022-12-29T06:46:57;1.87;;;1.60;;
2760;SDS011;15420;48.636;9.798;2022-12-29T06:49:23;4.87;;;2.33;;
2760;SDS011;15420;48.636;9.798;2022-12-29T06:51:49;2.23;;;1.80;;
2760;SDS011;15420;48.636;9.798;2022-12-29T06:54:16;2.80;;;1.90;;
2760;SDS011;15420;48.636;9.798;2022-12-29T06:56:42;3.13;;;2.27;;
2760;SDS011;15420;48.636;9.798;2022-12-29T06:59:09;3.30;;;1.97;;
2760;SDS011;15420;48.636;9.798;2022-12-29T07:01:35;2.40;;;1.97;;
2760;SDS011;15420;48.636;9.798;2022-12-29T07:04:03;1.80;;;1.70;;
2760;SDS011;15420;48.636;9.798;2022-12-29T07:06:29;4.20;;;1.90;;
2760;SDS011;15420;48.636;9.798;2022-12-29T07:08:55;2.30;;;1.73;;
2760;SDS011;15420;48.636;9.798;2022-12-29T07:11:22;2.10;;;1.90;;
2760;SDS011;15420;48.636;9.798;2022-12-29T07:13:48;2.43;;;1.83;;
2760;SDS011;15420;48.636;9.798;2022-12-29T07:16:15;2.70;;;2.00;;
2760;SDS011;15420;48.636;9.798;2022-12-29T07:18:41;5.33;;;2.13;;
2760;SDS011;15420;48.636;9.798;2022-12-29T07:21:07;1.93;;;1.83;;
2760;SDS011;15420;48.636;9.798;2022-12-29T07:23:34;4.40;;;2.17;;
2760;SDS011;15420;48.636;9.798;2022-12-29T07:26:00;1.97;;;1.77;;
2760;SDS011;15420;48.636;9.798;2022-12-29T07:28:29;1.70;;;1.60;;
2760;SDS011;15420;48.636;9.798;2022-12-29T07:30:58;2.20;;;1.87;;
2760;SDS011;15420;48.636;9.798;2022-12-29T07:33:24;2.20;;;1.73;;
2760;SDS011;15420;48.636;9.798;2022-12-29T07:35:54;2.60;;;1.83;;
2760;SDS011;15420;48.636;9.798;2022-12-29T07:38:22;4.50;;;2.77;;
2760;SDS011;15420;48.636;9.798;2022-12-29T07:40:48;5.37;;;3.20;;
2760;SDS011;15420;48.636;9.798;2022-12-29T07:43:21;7.50;;;3.80;;
2760;SDS011;15420;48.636;9.798;2022-12-29T07:45:49;6.13;;;4.50;;
2760;SDS011;15420;48.636;9.798;2022-12-29T07:48:18;5.43;;;3.50;;
2760;SDS011;15420;48.636;9.798;2022-12-29T07:50:47;4.30;;;3.30;;
2760;SDS011;15420;48.636;9.798;2022-12-29T07:53:13;2.40;;;2.20;;
2760;SDS011;15420;48.636;9.798;2022-12-29T07:55:46;3.57;;;2.80;;
2760;SDS011;15420;48.636;9.798;2022-12-29T07:58:14;2.60;;;2.00;;
2760;SDS011;15420;48.636;9.798;2022-12-29T08:00:40;2.13;;;2.03;;
2760;SDS011;15420;48.636;9.798;2022-12-29T08:03:09;4.67;;;3.00;;
2760;SDS011;15420;48.636;9.798;2022-12-29T08:05:38;3.30;;;2.53;;
2760;SDS011;15420;48.636;9.798;2022-12-29T08:08:04;8.93;;;3.17;;
2760;SDS011;15420;48.636;9.798;2022-12-29T08:10:34;6.13;;;3.40;;
2760;SDS011;15420;48.636;9.798;2022-12-29T08:13:03;2.80;;;2.60;;
2760;SDS011;15420;48.636;9.798;2022-12-29T08:15:29;4.40;;;2.80;;
2760;SDS011;15420;48.636;9.798;2022-12-29T08:18:02;4.50;;;3.33;;
2760;SDS011;15420;48.636;9.798;2022-12-29T08:20:28;3.90;;;2.60;;
2760;SDS011;15420;48.636;9.798;2022-12-29T08:22:54;3.80;;;2.37;;
2760;SDS011;15420;48.636;9.798;2022-12-29T08:25:20;5.50;;;3.07;;
2760;SDS011;15420;48.636;9.798;2022-12-29T08:27:47;6.37;;;4.73;;
2760;SDS011;15420;48.636;9.798;2022-12-29T08:30:16;3.13;;;2.50;;
2760;SDS011;15420;48.636;9.798;2022-12-29T08:32:42;4.03;;;2.57;;
2760;SDS011;15420;48.636;9.798;2022-12-29T08:35:09;4.37;;;2.77;;
2760;SDS011;15420;48.636;9.798;2022-12-29T08:37:38;2.87;;;2.27;;
2760;SDS011;15420;48.636;9.798;2022-12-29T08:40:04;2.03;;;1.83;;
2760;SDS011;15420;48.636;9.798;2022-12-29T08:42:31;2.07;;;1.90;;
2760;SDS011;15420;48.636;9.798;2022-12-29T08:45:05;2.07;;;1.70;;
2760;SDS011;15420;48.636;9.798;2022-12-29T08:47:33;2.83;;;1.97;;
2760;SDS011;15420;48.636;9.798;2022-12-29T08:50:02;2.97;;;2.00;;
2760;SDS011;15420;48.636;9.798;2022-12-29T08:52:29;3.50;;;2.30;;
2760;SDS011;15420;48.636;9.798;2022-12-29T08:55:03;2.50;;;1.90;;
2760;SDS011;15420;48.636;9.798;2022-12-29T08:57:38;2.17;;;1.93;;
2760;SDS011;15420;48.636;9.798;2022-12-29T09:00:05;2.77;;;2.50;;
2760;SDS011;15420;48.636;9.798;2022-12-29T09:02:39;2.60;;;1.83;;
2760;SDS011;15420;48.636;9.798;2022-12-29T09:05:11;2.40;;;2.20;;
2760;SDS011;15420;48.636;9.798;2022-12-29T09:07:37;2.60;;;2.17;;
2760;SDS011;15420;48.636;9.798;2022-12-29T09:10:04;2.70;;;1.70;;
2760;SDS011;15420;48.636;9.798;2022-12-29T09:12:34;2.57;;;2.30;;
2760;SDS011;15420;48.636;9.798;2022-12-29T09:15:00;3.20;;;2.60;;
2760;SDS011;15420;48.636;9.798;2022-12-29T09:17:30;2.90;;;2.20;;
2760;SDS011;15420;48.636;9.798;2022-12-29T09:20:15;3.50;;;2.20;;
2760;SDS011;15420;48.636;9.798;2022-12-29T09:22:50;3.00;;;2.20;;
2760;SDS011;15420;48.636;9.798;2022-12-29T09:25:16;2.70;;;2.30;;
2760;SDS011;15420;48.636;9.798;2022-12-29T09:27:50;4.70;;;3.13;;
2760;SDS011;15420;48.636;9.798;2022-12-29T09:30:26;4.63;;;2.50;;
2760;SDS011;15420;48.636;9.798;2022-12-29T09:33:02;2.63;;;1.90;;
2760;SDS011;15420;48.636;9.798;2022-12-29T09:35:28;4.47;;;2.80;;
2760;SDS011;15420;48.636;9.798;2022-12-29T09:37:59;3.17;;;2.37;;
2760;SDS011;15420;48.636;9.798;2022-12-29T09:40:29;4.53;;;2.40;;
2760;SDS011;15420;48.636;9.798;2022-12-29T09:46:24;4.37;;;2.50;;
2760;SDS011;15420;48.636;9.798;2022-12-29T09:49:04;3.17;;;2.10;;
2760;SDS011;15420;48.636;9.798;2022-12-29T09:51:41;5.33;;;2.80;;
2760;SDS011;15420;48.636;9.798;2022-12-29T09:57:10;2.77;;;2.10;;
2760;SDS011;15420;48.636;9.798;2022-12-29T10:00:21;3.10;;;1.83;;
2760;SDS011;15420;48.636;9.798;2022-12-29T10:02:56;4.50;;;1.93;;
2760;SDS011;15420;48.636;9.798;2022-12-29T10:05:39;2.22;;;2.03;;
2760;SDS011;15420;48.636;9.798;2022-12-29T10:11:08;2.70;;;2.17;;
2760;SDS011;15420;48.636;9.798;2022-12-29T10:13:39;4.63;;;2.80;;
2760;SDS011;15420;48.636;9.798;2022-12-29T10:16:42;4.00;;;2.40;;
2760;SDS011;15420;48.636;9.798;2022-12-29T10:24:57;2.57;;;2.27;;
2760;SDS011;15420;48.636;9.798;2022-12-29T10:27:29;3.83;;;2.20;;
2760;SDS011;15420;48.636;9.798;2022-12-29T10:29:58;2.43;;;2.00;;
2760;SDS011;15420;48.636;9.798;2022-12-29T10:32:29;4.43;;;2.20;;
2760;SDS011;15420;48.636;9.798;2022-12-29T10:37:50;2.00;;;1.80;;
2760;SDS011;15420;48.636;9.798;2022-12-29T10:42:53;2.50;;;2.03;;
2760;SDS011;15420;48.636;9.798;2022-12-29T10:45:21;2.57;;;1.90;;
2760;SDS011;15420;48.636;9.798;2022-12-29T10:48:02;2.80;;;2.00;;
2760;SDS011;15420;48.636;9.798;2022-12-29T10:50:34;3.33;;;1.60;;
2760;SDS011;15420;48.636;9.798;2022-12-29T10:53:02;2.90;;;2.03;;
2760;SDS011;15420;48.636;9.798;2022-12-29T10:55:32;3.23;;;2.27;;
2760;SDS011;15420;48.636;9.798;2022-12-29T10:58:10;3.47;;;2.00;;
2760;SDS011;15420;48.636;9.798;2022-12-29T11:00:41;2.10;;;1.90;;
2760;SDS011;15420;48.636;9.798;2022-12-29T11:08:49;2.37;;;1.43;;
2760;SDS011;15420;48.636;9.798;2022-12-29T11:11:32;1.80;;;1.60;;
2760;SDS011;15420;48.636;9.798;2022-12-29T11:14:13;1.80;;;1.70;;
2760;SDS011;15420;48.636;9.798;2022-12-29T11:16:45;1.60;;;1.50;;
2760;SDS011;15420;48.636;9.798;2022-12-29T11:19:27;2.17;;;1.70;;
2760;SDS011;15420;48.636;9.798;2022-12-29T11:24:50;1.93;;;1.70;;
2760;SDS011;15420;48.636;9.798;2022-12-29T11:27:19;3.10;;;1.30;;
2760;SDS011;15420;48.636;9.798;2022-12-29T11:29:56;2.60;;;1.47;;
2760;SDS011;15420;48.636;9.798;2022-12-29T11:32:27;1.40;;;1.30;;
2760;SDS011;15420;48.636;9.798;2022-12-29T11:34:59;1.43;;;1.20;;
2760;SDS011;15420;48.636;9.798;2022-12-29T11:37:32;2.90;;;1.57;;
2760;SDS011;15420;48.636;9.798;2022-12-29T11:40:18;1.70;;;1.30;;
2760;SDS011;15420;48.636;9.798;2022-12-29T11:45:34;1.47;;;1.30;;
2760;SDS011;15420;48.636;9.798;2022-12-29T11:48:16;1.43;;;1.10;;
2760;SDS011;15420;48.636;9.798;2022-12-29T11:50:53;2.10;;;1.33;;
2760;SDS011;15420;48.636;9.798;2022-12-29T11:56:14;1.77;;;1.67;;
2760;SDS011;15420;48.636;9.798;2022-12-29T11:58:42;1.33;;;1.23;;
2760;SDS011;15420;48.636;9.798;2022-12-29T12:01:21;1.30;;;1.20;;
2760;SDS011;15420;48.636;9.798;2022-12-29T12:04:01;2.87;;;1.87;;
2760;SDS011;15420;48.636;9.798;2022-12-29T12:06:34;2.13;;;1.37;;
2760;SDS011;15420;48.636;9.798;2022-12-29T12:09:27;2.20;;;1.37;;
2760;SDS011;15420;48.636;9.798;2022-12-29T12:12:22;2.23;;;1.43;;
2760;SDS011;15420;48.636;9.798;2022-12-29T12:14:57;1.50;;;1.10;;
2760;SDS011;15420;48.636;9.798;2022-12-29T12:17:30;1.50;;;1.40;;
2760;SDS011;15420;48.636;9.798;2022-12-29T12:29:14;4.63;;;2.60;;
2760;SDS011;15420;48.636;9.798;2022-12-29T12:34:59;3.50;;;2.17;;
2760;SDS011;15420;48.636;9.798;2022-12-29T13:03:47;2.37;;;2.17;;
2760;SDS011;15420;48.636;9.798;2022-12-29T13:13:20;3.87;;;1.90;;
2760;SDS011;15420;48.636;9.798;2022-12-29T13:26:53;5.03;;;2.40;;
2760;SDS011;15420;48.636;9.798;2022-12-29T13:32:32;1.57;;;1.47;;
2760;SDS011;15420;48.636;9.798;2022-12-29T13:35:28;2.23;;;1.60;;
2760;SDS011;15420;48.636;9.798;2022-12-29T13:38:07;2.00;;;1.80;;
2760;SDS011;15420;48.636;9.798;2022-12-29T13:40:49;1.43;;;1.33;;
2760;SDS011;15420;48.636;9.798;2022-12-29T13:43:31;4.20;;;1.37;;
2760;SDS011;15420;48.636;9.798;2022-12-29T13:46:09;2.10;;;1.50;;
2760;SDS011;15420;48.636;9.798;2022-12-29T13:48:51;4.10;;;3.37;;
2760;SDS011;15420;48.636;9.798;2022-12-29T13:51:19;7.00;;;4.67;;
2760;SDS011;15420;48.636;9.798;2022-12-29T13:53:54;7.80;;;4.07;;
2760;SDS011;15420;48.636;9.798;2022-12-29T13:56:34;8.50;;;4.90;;
2760;SDS011;15420;48.636;9.798;2022-12-29T13:59:36;9.50;;;4.10;;
2760;SDS011;15420;48.636;9.798;2022-12-29T14:05:38;4.23;;;2.50;;
2760;SDS011;15420;48.636;9.798;2022-12-29T14:08:05;2.10;;;2.00;;
2760;SDS011;15420;48.636;9.798;2022-12-29T14:10:49;2.83;;;1.67;;
2760;SDS011;15420;48.636;9.798;2022-12-29T14:13:22;2.30;;;1.80;;
2760;SDS011;15420;48.636;9.798;2022-12-29T14:15:51;1.63;;;1.53;;
2760;SDS011;15420;48.636;9.798;2022-12-29T14:18:31;1.80;;;1.10;;
2760;SDS011;15420;48.636;9.798;2022-12-29T14:21:10;2.47;;;1.40;;
2760;SDS011;15420;48.636;9.798;2022-12-29T14:23:48;1.40;;;1.27;;
2760;SDS011;15420;48.636;9.798;2022-12-29T14:26:39;1.57;;;1.47;;
2760;SDS011;15420;48.636;9.798;2022-12-29T14:30:06;2.03;;;1.60;;
2760;SDS011;15420;48.636;9.798;2022-12-29T14:32:35;2.37;;;1.73;;
2760;SDS011;15420;48.636;9.798;2022-12-29T14:34:50;3.73;;;1.97;;
2760;SDS011;15420;48.636;9.798;2022-12-29T14:37:30;2.73;;;1.97;;
2760;SDS011;15420;48.636;9.798;2022-12-29T14:42:53;2.70;;;1.67;;
2760;SDS011;15420;48.636;9.798;2022-12-29T14:47:51;5.10;;;2.70;;
2760;SDS011;15420;48.636;9.798;2022-12-29T14:50:38;1.80;;;1.30;;
2760;SDS011;15420;48.636;9.798;2022-12-29T14:53:10;2.13;;;1.90;;
2760;SDS011;15420;48.636;9.798;2022-12-29T14:56:17;3.93;;;2.97;;
2760;SDS011;15420;48.636;9.798;2022-12-29T14:58:51;2.97;;;2.17;;
2760;SDS011;15420;48.636;9.798;2022-12-29T15:04:23;3.17;;;2.33;;
2760;SDS011;15420;48.636;9.798;2022-12-29T15:06:58;5.57;;;3.30;;
2760;SDS011;15420;48.636;9.798;2022-12-29T15:09:30;10.00;;;4.20;;
2760;SDS011;15420;48.636;9.798;2022-12-29T15:12:06;6.17;;;3.53;;
2760;SDS011;15420;48.636;9.798;2022-12-29T15:14:54;8.07;;;3.60;;
2760;SDS011;15420;48.636;9.798;2022-12-29T15:17:30;6.50;;;4.40;;
2760;SDS011;15420;48.636;9.798;2022-12-29T15:20:13;9.00;;;4.37;;
2760;SDS011;15420;48.636;9.798;2022-12-29T15:22:50;10.83;;;4.97;;
2760;SDS011;15420;48.636;9.798;2022-12-29T15:25:28;6.63;;;4.00;;
2760;SDS011;15420;48.636;9.798;2022-12-29T15:28:01;8.60;;;4.50;;
2760;SDS011;15420;48.636;9.798;2022-12-29T15:30:34;9.13;;;5.63;;
2760;SDS011;15420;48.636;9.798;2022-12-29T15:33:01;7.60;;;5.20;;
2760;SDS011;15420;48.636;9.798;2022-12-29T15:35:33;8.70;;;4.57;;
2760;SDS011;15420;48.636;9.798;2022-12-29T15:38:00;5.67;;;3.93;;
2760;SDS011;15420;48.636;9.798;2022-12-29T15:40:48;20.20;;;10.53;;
2760;SDS011;15420;48.636;9.798;2022-12-29T15:43:37;13.03;;;8.00;;
2760;SDS011;15420;48.636;9.798;2022-12-29T15:46:21;9.63;;;6.20;;
2760;SDS011;15420;48.636;9.798;2022-12-29T15:48:47;9.27;;;5.90;;
2760;SDS011;15420;48.636;9.798;2022-12-29T15:51:16;5.23;;;4.37;;
2760;SDS011;15420;48.636;9.798;2022-12-29T15:54:03;6.70;;;4.90;;
2760;SDS011;15420;48.636;9.798;2022-12-29T15:56:34;9.10;;;4.70;;
2760;SDS011;15420;48.636;9.798;2022-12-29T15:59:03;9.27;;;4.30;;
2760;SDS011;15420;48.636;9.798;2022-12-29T16:04:00;7.90;;;4.00;;
2760;SDS011;15420;48.636;9.798;2022-12-29T16:11:37;4.77;;;4.20;;
2760;SDS011;15420;48.636;9.798;2022-12-29T16:14:06;5.90;;;4.67;;
2760;SDS011;15420;48.636;9.798;2022-12-29T16:16:39;6.53;;;4.50;;
2760;SDS011;15420;48.636;9.798;2022-12-29T16:19:13;7.80;;;5.63;;
2760;SDS011;15420;48.636;9.798;2022-12-29T16:22:02;11.33;;;7.23;;
2760;SDS011;15420;48.636;9.798;2022-12-29T16:24:38;9.87;;;7.80;;
2760;SDS011;15420;48.636;9.798;2022-12-29T16:27:32;11.50;;;7.60;;
2760;SDS011;15420;48.636;9.798;2022-12-29T16:30:06;10.67;;;7.37;;
2760;SDS011;15420;48.636;9.798;2022-12-29T16:32:46;10.03;;;7.47;;
2760;SDS011;15420;48.636;9.798;2022-12-29T16:35:28;12.53;;;7.90;;
2760;SDS011;15420;48.636;9.798;2022-12-29T16:40:57;9.33;;;6.90;;
2760;SDS011;15420;48.636;9.798;2022-12-29T16:43:33;10.27;;;7.70;;
2760;SDS011;15420;48.636;9.798;2022-12-29T16:46:23;17.43;;;10.50;;
2760;SDS011;15420;48.636;9.798;2022-12-29T16:48:54;12.90;;;9.30;;
2760;SDS011;15420;48.636;9.798;2022-12-29T16:51:34;11.90;;;8.33;;
2760;SDS011;15420;48.636;9.798;2022-12-29T16:54:02;14.13;;;7.03;;
2760;SDS011;15420;48.636;9.798;2022-12-29T16:56:35;9.00;;;6.50;;
2760;SDS011;15420;48.636;9.798;2022-12-29T17:01:57;7.70;;;5.77;;
2760;SDS011;15420;48.636;9.798;2022-12-29T17:04:24;7.47;;;5.80;;
2760;SDS011;15420;48.636;9.798;2022-12-29T17:06:50;10.37;;;7.03;;
2760;SDS011;15420;48.636;9.798;2022-12-29T17:09:17;8.50;;;6.60;;
2760;SDS011;15420;48.636;9.798;2022-12-29T17:11:57;8.80;;;5.70;;
2760;SDS011;15420;48.636;9.798;2022-12-29T17:14:34;6.97;;;4.20;;
2760;SDS011;15420;48.636;9.798;2022-12-29T17:17:12;8.30;;;5.00;;
2760;SDS011;15420;48.636;9.798;2022-12-29T17:19:39;4.67;;;4.27;;
2760;SDS011;15420;48.636;9.798;2022-12-29T17:22:13;9.70;;;5.60;;
2760;SDS011;15420;48.636;9.798;2022-12-29T17:24:52;7.43;;;6.00;;
2760;SDS011;15420;48.636;9.798;2022-12-29T17:27:38;11.60;;;7.50;;
2760;SDS011;15420;48.636;9.798;2022-12-29T17:30:11;14.07;;;9.40;;
2760;SDS011;15420;48.636;9.798;2022-12-29T17:32:57;11.67;;;8.50;;
2760;SDS011;15420;48.636;9.798;2022-12-29T17:35:34;13.00;;;10.13;;
2760;SDS011;15420;48.636;9.798;2022-12-29T17:38:00;12.90;;;9.20;;
2760;SDS011;15420;48.636;9.798;2022-12-29T17:40:28;14.37;;;9.27;;
2760;SDS011;15420;48.636;9.798;2022-12-29T17:43:03;12.20;;;9.47;;
2760;SDS011;15420;48.636;9.798;2022-12-29T17:45:30;10.00;;;7.97;;
2760;SDS011;15420;48.636;9.798;2022-12-29T17:47:58;9.50;;;7.00;;
2760;SDS011;15420;48.636;9.798;2022-12-29T17:50:29;8.40;;;7.00;;
2760;SDS011;15420;48.636;9.798;2022-12-29T17:52:57;7.27;;;6.40;;
2760;SDS011;15420;48.636;9.798;2022-12-29T17:55:41;5.77;;;5.27;;
2760;SDS011;15420;48.636;9.798;2022-12-29T18:00:49;7.00;;;4.40;;
2760;SDS011;15420;48.636;9.798;2022-12-29T18:03:20;3.87;;;3.50;;
2760;SDS011;15420;48.636;9.798;2022-12-29T18:05:55;3.67;;;3.27;;
2760;SDS011;15420;48.636;9.798;2022-12-29T18:08:26;4.33;;;3.83;;
2760;SDS011;15420;48.636;9.798;2022-12-29T18:10:56;7.50;;;3.97;;
2760;SDS011;15420;48.636;9.798;2022-12-29T18:13:32;5.13;;;4.00;;
2760;SDS011;15420;48.636;9.798;2022-12-29T18:16:01;5.70;;;4.73;;
2760;SDS011;15420;48.636;9.798;2022-12-29T18:18:29;7.60;;;5.53;;
2760;SDS011;15420;48.636;9.798;2022-12-29T18:20:57;10.50;;;5.77;;
2760;SDS011;15420;48.636;9.798;2022-12-29T18:23:28;7.47;;;5.77;;
2760;SDS011;15420;48.636;9.798;2022-12-29T18:26:03;6.03;;;5.03;;